Time;durP1;ratioP1;P1;durP2;ratioP2;P2;SDS_P1;SDS_P2;PMS_P1;PMS_P2;Temp;Humidity;BMP_temperature;BMP_pressure;BME280_temperature;BME280_humidity;BME280_pressure;Samples;Min_cycle;Max_cycle;Signal;HPM_P1;HPM_P2
2022/07/17 00:00:00;;;;;;;0.50;0.50;;;15.10;1.00;;;;;;5037655;28;20269;-78
2022/07/17 00:02:26;;;;;;;0.30;0.30;;;15.10;1.00;;;;;;5038214;28;20204;-77
2022/07/17 00:04:52;;;;;;;0.40;0.40;;;15.10;1.00;;;;;;5037341;28;20182;-78
2022/07/17 00:07:18;;;;;;;0.40;0.40;;;15.10;1.00;;;;;;5037111;28;20187;-77
2022/07/17 00:09:43;;;;;;;0.43;0.43;;;15.10;1.00;;;;;;5036908;28;20174;-78
2022/07/17 00:12:09;;;;;;;0.40;0.40;;;15.10;1.00;;;;;;5038258;28;20216;-78
2022/07/17 00:14:35;;;;;;;0.30;0.30;;;15.10;1.00;;;;;;5038584;28;20180;-79
2022/07/17 00:17:00;;;;;;;0.30;0.30;;;15.10;1.00;;;;;;5038610;28;20176;-79
2022/07/17 00:19:26;;;;;;;0.40;0.40;;;15.10;1.00;;;;;;5038325;28;20172;-78
2022/07/17 00:21:51;;;;;;;0.40;0.40;;;15.00;1.00;;;;;;5038481;28;20188;-79
2022/07/17 00:24:19;;;;;;;0.30;0.30;;;15.00;1.00;;;;;;5038972;28;20172;-78
2022/07/17 00:26:50;;;;;;;0.40;0.40;;;15.00;1.00;;;;;;5040035;28;20552;-79
2022/07/17 00:29:16;;;;;;;0.50;0.50;;;14.90;1.00;;;;;;5039026;28;20176;-78
2022/07/17 00:31:42;;;;;;;0.40;0.40;;;14.90;39.10;;;;;;5053115;28;20203;-77
2022/07/17 00:34:07;;;;;;;0.40;0.40;;;14.80;99.90;;;;;;5053804;28;20206;-76
2022/07/17 00:36:33;;;;;;;0.40;0.40;;;14.80;99.90;;;;;;5052716;28;20236;-76
2022/07/17 00:38:58;;;;;;;0.30;0.30;;;14.70;99.90;;;;;;5051826;28;20176;-77
2022/07/17 00:41:24;;;;;;;0.30;0.30;;;14.60;1.00;;;;;;5053541;28;20175;-77
2022/07/17 00:43:50;;;;;;;0.37;0.37;;;14.60;1.00;;;;;;5052744;28;20192;-77
2022/07/17 00:46:15;;;;;;;0.50;0.50;;;14.50;1.00;;;;;;5054240;28;20176;-77
2022/07/17 00:48:41;;;;;;;0.40;0.40;;;14.40;99.90;;;;;;5052763;28;20172;-77
2022/07/17 00:51:08;;;;;;;0.40;0.40;;;14.30;1.00;;;;;;5050349;28;20212;-79
2022/07/17 00:53:35;;;;;;;0.50;0.50;;;14.20;99.90;;;;;;5040393;28;20673;-79
2022/07/17 00:56:05;;;;;;;0.40;0.40;;;14.10;1.00;;;;;;5039660;28;20245;-79
2022/07/17 00:58:34;;;;;;;0.50;0.50;;;14.10;99.90;;;;;;5039692;28;20192;-78
2022/07/17 01:00:59;;;;;;;0.40;0.40;;;14.00;81.50;;;;;;5038695;28;20196;-79
2022/07/17 01:03:26;;;;;;;0.40;0.40;;;13.80;1.00;;;;;;5038683;28;20203;-79
2022/07/17 01:05:52;;;;;;;0.50;0.50;;;13.80;1.00;;;;;;5040690;28;20172;-80
2022/07/17 01:08:17;;;;;;;0.40;0.40;;;13.70;1.00;;;;;;5043384;28;20194;-78
2022/07/17 01:10:43;;;;;;;0.40;0.40;;;13.80;1.00;;;;;;5039895;28;20183;-80
2022/07/17 01:13:09;;;;;;;0.40;0.40;;;13.80;1.00;;;;;;5041989;28;20227;-79
2022/07/17 01:15:39;;;;;;;17.43;3.07;;;13.90;1.00;;;;;;5040809;28;20176;-79
2022/07/17 01:18:10;;;;;;;0.40;0.40;;;13.90;99.90;;;;;;5039177;28;20203;-79
2022/07/17 01:20:38;;;;;;;0.40;0.40;;;13.90;1.00;;;;;;5038308;28;20184;-79
2022/07/17 01:23:05;;;;;;;0.40;0.40;;;13.90;99.90;;;;;;5038369;28;20196;-79
2022/07/17 01:25:30;;;;;;;0.30;0.30;;;13.90;1.00;;;;;;5038437;28;20184;-79
2022/07/17 01:27:56;;;;;;;0.43;0.43;;;13.80;1.00;;;;;;5037921;28;20661;-80
2022/07/17 01:30:22;;;;;;;0.40;0.40;;;13.80;35.20;;;;;;5036356;28;20179;-79
2022/07/17 01:32:47;;;;;;;0.40;0.40;;;13.70;99.90;;;;;;5037027;28;20555;-78
2022/07/17 01:35:14;;;;;;;0.40;0.40;;;13.60;1.00;;;;;;5037407;28;20199;-79
2022/07/17 01:37:41;;;;;;;0.40;0.40;;;13.60;1.00;;;;;;5037547;28;20638;-79
2022/07/17 01:40:09;;;;;;;0.40;0.40;;;13.50;1.00;;;;;;5038379;28;20554;-79
2022/07/17 01:42:35;;;;;;;0.40;0.40;;;13.50;99.90;;;;;;5037948;28;20567;-79
2022/07/17 01:45:01;;;;;;;0.40;0.40;;;13.50;1.00;;;;;;5040804;28;20668;-78
2022/07/17 01:47:26;;;;;;;0.40;0.40;;;13.40;1.00;;;;;;5040248;28;20539;-77
2022/07/17 01:49:55;;;;;;;0.40;0.40;;;13.40;1.00;;;;;;5039208;28;20242;-79
2022/07/17 01:52:23;;;;;;;0.40;0.40;;;13.40;1.00;;;;;;5038750;28;20889;-79
2022/07/17 01:54:49;;;;;;;0.53;0.53;;;13.50;99.90;;;;;;5039506;28;20206;-78
2022/07/17 01:57:14;;;;;;;0.43;0.43;;;13.50;99.90;;;;;;5041323;28;20175;-79
2022/07/17 01:59:40;;;;;;;0.40;0.40;;;13.60;99.90;;;;;;5040452;28;20179;-78
2022/07/17 02:02:07;;;;;;;0.50;0.50;;;13.50;99.90;;;;;;5038983;28;20204;-78
2022/07/17 02:04:36;;;;;;;0.40;0.40;;;13.50;1.00;;;;;;5036614;28;20176;-78
2022/07/17 02:07:03;;;;;;;0.50;0.50;;;13.50;99.90;;;;;;5036893;28;20275;-78
2022/07/17 02:09:29;;;;;;;0.50;0.50;;;13.50;30.70;;;;;;5038545;28;20183;-78
2022/07/17 02:11:54;;;;;;;0.50;0.50;;;13.40;31.80;;;;;;5037817;28;20718;-78
2022/07/17 02:14:20;;;;;;;0.43;0.43;;;13.40;1.00;;;;;;5037681;28;20176;-78
2022/07/17 02:16:46;;;;;;;0.60;0.60;;;13.40;60.00;;;;;;5038562;28;20198;-79
2022/07/17 02:19:11;;;;;;;0.50;0.50;;;13.40;1.00;;;;;;5037554;28;20218;-79
2022/07/17 02:21:37;;;;;;;0.40;0.40;;;13.40;1.00;;;;;;5038309;28;20218;-77
2022/07/17 02:24:03;;;;;;;0.40;0.40;;;13.40;1.00;;;;;;5033992;28;20172;-77
2022/07/17 02:26:28;;;;;;;0.30;0.30;;;13.30;1.00;;;;;;5037483;28;20602;-76
2022/07/17 02:28:54;;;;;;;0.50;0.50;;;13.30;1.00;;;;;;5038101;28;20178;-76
2022/07/17 02:31:20;;;;;;;0.40;0.40;;;13.30;1.00;;;;;;5039625;28;20212;-78
2022/07/17 02:33:46;;;;;;;0.37;0.37;;;13.30;1.00;;;;;;5041155;28;20196;-77
2022/07/17 02:36:11;;;;;;;0.40;0.40;;;13.30;67.00;;;;;;5039220;28;20184;-76
2022/07/17 02:38:37;;;;;;;0.40;0.40;;;13.30;1.00;;;;;;5036553;28;20659;-77
2022/07/17 02:41:03;;;;;;;0.40;0.40;;;13.30;1.00;;;;;;5033396;28;20171;-79
2022/07/17 02:43:28;;;;;;;0.50;0.50;;;13.20;1.00;;;;;;5034500;28;20200;-78
2022/07/17 02:45:54;;;;;;;0.50;0.50;;;13.10;1.00;;;;;;5034661;28;20186;-80
2022/07/17 02:48:19;;;;;;;0.40;0.40;;;13.00;1.00;;;;;;5034723;28;20206;-78
2022/07/17 02:50:45;;;;;;;0.40;0.40;;;12.90;50.60;;;;;;5033646;28;20647;-80
2022/07/17 02:53:11;;;;;;;0.43;0.43;;;12.80;99.90;;;;;;5043842;28;20206;-75
2022/07/17 02:55:36;;;;;;;0.40;0.40;;;12.80;1.00;;;;;;5055237;28;20180;-76
2022/07/17 02:58:02;;;;;;;0.40;0.40;;;12.70;1.00;;;;;;5049992;28;20180;-77
2022/07/17 03:00:28;;;;;;;0.40;0.40;;;12.70;1.00;;;;;;5047603;28;20183;-77
2022/07/17 03:02:55;;;;;;;0.60;0.60;;;12.70;1.00;;;;;;5048184;28;20206;-77
2022/07/17 03:05:20;;;;;;;0.47;0.47;;;12.70;1.00;;;;;;5046216;28;20188;-76
2022/07/17 03:07:46;;;;;;;0.43;0.43;;;12.70;99.90;;;;;;5047698;28;20183;-77
2022/07/17 03:10:13;;;;;;;0.50;0.50;;;12.70;99.90;;;;;;5048507;28;20391;-77
2022/07/17 03:12:39;;;;;;;0.57;0.57;;;12.80;99.90;;;;;;5051721;28;20274;-76
2022/07/17 03:15:05;;;;;;;0.50;0.50;;;12.70;1.00;;;;;;5054185;28;20183;-78
2022/07/17 03:17:31;;;;;;;0.60;0.60;;;12.70;99.90;;;;;;5043987;28;20202;-77
2022/07/17 03:19:56;;;;;;;0.60;0.60;;;12.70;1.00;;;;;;5045059;28;20258;-78
2022/07/17 03:22:22;;;;;;;0.40;0.40;;;12.60;1.00;;;;;;5043536;28;20222;-78
2022/07/17 03:24:47;;;;;;;0.40;0.40;;;12.60;1.00;;;;;;5040422;28;20708;-78
2022/07/17 03:27:13;;;;;;;0.50;0.50;;;12.60;1.00;;;;;;5040428;28;20633;-79
2022/07/17 03:29:39;;;;;;;0.43;0.43;;;12.70;99.90;;;;;;5040156;28;20176;-79
2022/07/17 03:32:05;;;;;;;0.40;0.40;;;12.70;99.90;;;;;;5041535;28;20218;-78
2022/07/17 03:34:30;;;;;;;0.43;0.43;;;12.60;99.90;;;;;;5042364;28;20233;-79
2022/07/17 03:36:56;;;;;;;0.43;0.43;;;12.60;1.00;;;;;;5042076;28;20179;-79
2022/07/17 03:39:21;;;;;;;0.50;0.50;;;12.50;99.90;;;;;;5039518;28;20190;-79
2022/07/17 03:41:47;;;;;;;0.60;0.60;;;12.40;99.90;;;;;;5039966;28;20202;-79
2022/07/17 03:44:13;;;;;;;0.60;0.60;;;12.30;1.00;;;;;;5039486;28;20172;-78
2022/07/17 03:46:39;;;;;;;0.60;0.60;;;12.30;1.00;;;;;;5038208;28;20540;-78
2022/07/17 03:49:05;;;;;;;0.50;0.50;;;12.30;1.00;;;;;;5037756;28;20175;-79
2022/07/17 03:51:30;;;;;;;0.63;0.63;;;12.30;1.00;;;;;;5038080;28;20211;-78
2022/07/17 03:53:56;;;;;;;0.50;0.50;;;12.30;1.00;;;;;;5038814;28;20214;-78
2022/07/17 03:56:22;;;;;;;0.60;0.60;;;12.30;1.00;;;;;;5038096;28;20365;-78
2022/07/17 03:58:48;;;;;;;0.40;0.40;;;12.30;1.00;;;;;;5037358;28;20908;-77
2022/07/17 04:01:14;;;;;;;0.50;0.50;;;12.30;1.00;;;;;;5053105;23;20220;-76
2022/07/17 04:03:39;;;;;;;0.50;0.50;;;12.30;1.00;;;;;;5042747;28;20196;-76
2022/07/17 04:06:05;;;;;;;0.50;0.50;;;12.20;1.00;;;;;;5043833;28;20235;-77
2022/07/17 04:08:31;;;;;;;0.40;0.40;;;12.20;1.00;;;;;;5041877;28;20186;-76
2022/07/17 04:10:56;;;;;;;0.60;0.60;;;12.20;1.00;;;;;;5043146;28;20172;-77
2022/07/17 04:13:22;;;;;;;0.50;0.50;;;12.20;1.00;;;;;;5043781;28;20204;-77
2022/07/17 04:15:56;;;;;;;0.50;0.50;;;12.20;1.00;;;;;;5038318;28;20172;-76
2022/07/17 04:18:24;;;;;;;0.40;0.40;;;12.30;1.00;;;;;;5034518;28;20248;-76
2022/07/17 04:20:51;;;;;;;0.40;0.40;;;12.40;1.00;;;;;;5033977;28;20176;-76
2022/07/17 04:23:17;;;;;;;0.50;0.50;;;12.50;1.00;;;;;;5033599;28;20576;-75
2022/07/17 04:25:43;;;;;;;0.50;0.50;;;12.60;1.00;;;;;;5034640;28;20176;-76
2022/07/17 04:28:10;;;;;;;0.40;0.40;;;12.60;1.00;;;;;;5034586;28;20183;-76
2022/07/17 04:30:35;;;;;;;0.50;0.50;;;12.70;1.00;;;;;;5034038;28;20267;-76
2022/07/17 04:33:01;;;;;;;0.40;0.40;;;12.80;1.00;;;;;;5034209;28;20302;-76
2022/07/17 04:35:27;;;;;;;0.40;0.40;;;12.90;1.00;;;;;;5034136;28;20551;-76
2022/07/17 04:37:52;;;;;;;0.40;0.40;;;13.00;1.00;;;;;;5033689;28;20187;-76
2022/07/17 04:40:19;;;;;;;0.40;0.40;;;13.10;1.00;;;;;;5033677;28;20178;-76
2022/07/17 04:42:44;;;;;;;0.50;0.50;;;13.10;1.00;;;;;;5034068;28;20195;-75
2022/07/17 04:45:10;;;;;;;0.40;0.40;;;13.20;1.00;;;;;;5033779;28;20591;-76
2022/07/17 04:47:36;;;;;;;0.40;0.40;;;13.30;1.00;;;;;;5033541;28;20192;-75
2022/07/17 04:50:01;;;;;;;0.40;0.40;;;13.10;1.00;;;;;;5033312;28;20195;-75
2022/07/17 04:52:27;;;;;;;0.50;0.50;;;12.70;1.00;;;;;;5033242;28;20302;-75
2022/07/17 04:54:53;;;;;;;0.43;0.43;;;12.60;1.00;;;;;;5033699;28;20176;-75
2022/07/17 04:57:18;;;;;;;0.50;0.50;;;12.40;1.00;;;;;;5033705;28;20176;-76
2022/07/17 04:59:44;;;;;;;0.40;0.40;;;12.60;1.00;;;;;;5033063;28;20184;-74
2022/07/17 05:02:09;;;;;;;0.43;0.43;;;12.80;1.00;;;;;;5033196;28;20215;-75
2022/07/17 05:04:35;;;;;;;0.50;0.50;;;13.00;1.00;;;;;;5033418;28;20191;-76
2022/07/17 05:07:01;;;;;;;0.40;0.40;;;13.10;1.00;;;;;;5033222;28;20649;-75
2022/07/17 05:09:26;;;;;;;0.40;0.40;;;13.40;1.00;;;;;;5032876;28;20183;-76
2022/07/17 05:11:52;;;;;;;0.37;0.37;;;13.60;1.00;;;;;;5033293;28;20222;-75
2022/07/17 05:14:17;;;;;;;0.40;0.40;;;13.50;1.00;;;;;;5033378;28;20196;-76
2022/07/17 05:16:43;;;;;;;0.50;0.50;;;13.50;1.00;;;;;;5033192;28;20176;-76
2022/07/17 05:19:08;;;;;;;0.43;0.43;;;13.50;1.00;;;;;;5032643;28;20168;-76
2022/07/17 05:21:34;;;;;;;0.50;0.50;;;13.60;1.00;;;;;;5033026;28;20186;-76
2022/07/17 05:23:59;;;;;;;0.40;0.40;;;13.80;1.00;;;;;;5033034;28;20179;-76
2022/07/17 05:26:25;;;;;;;0.40;0.40;;;13.80;1.00;;;;;;5033457;28;20271;-76
2022/07/17 05:28:52;;;;;;;0.40;0.40;;;13.80;1.00;;;;;;5031422;28;20202;-75
2022/07/17 05:31:18;;;;;;;0.43;0.43;;;14.00;1.00;;;;;;5032667;28;20261;-76
2022/07/17 05:33:44;;;;;;;0.50;0.50;;;14.00;1.00;;;;;;5032654;28;20200;-76
2022/07/17 05:36:10;;;;;;;0.40;0.40;;;14.10;1.00;;;;;;5031742;28;20275;-75
2022/07/17 05:38:37;;;;;;;0.40;0.40;;;14.10;1.00;;;;;;5032812;28;20211;-76
2022/07/17 05:41:03;;;;;;;0.40;0.40;;;14.10;1.00;;;;;;5032513;28;20227;-75
2022/07/17 05:43:29;;;;;;;0.40;0.40;;;14.20;1.00;;;;;;5032523;28;20219;-76
2022/07/17 05:45:58;;;;;;;0.50;0.50;;;14.30;1.00;;;;;;5032791;28;20203;-76
2022/07/17 05:48:25;;;;;;;0.40;0.40;;;14.50;1.00;;;;;;5033045;28;20198;-75
2022/07/17 05:50:50;;;;;;;0.30;0.30;;;14.90;1.00;;;;;;5032709;28;20263;-76
2022/07/17 05:53:16;;;;;;;0.40;0.40;;;15.00;99.90;;;;;;5033556;28;20231;-76
2022/07/17 05:55:42;;;;;;;0.37;0.37;;;15.00;99.90;;;;;;5033328;28;20176;-76
2022/07/17 05:58:08;;;;;;;0.30;0.30;;;15.00;99.90;;;;;;5032814;28;20263;-76
2022/07/17 06:00:34;;;;;;;0.30;0.30;;;14.90;99.90;;;;;;5031962;28;20274;-76
2022/07/17 06:03:00;;;;;;;0.30;0.30;;;15.00;99.90;;;;;;5032392;28;20579;-76
2022/07/17 06:05:26;;;;;;;0.40;0.40;;;15.20;1.00;;;;;;5032351;28;20229;-76
2022/07/17 06:07:53;;;;;;;0.30;0.30;;;15.40;1.00;;;;;;5033037;28;20180;-76
2022/07/17 06:10:18;;;;;;;0.30;0.30;;;15.50;1.00;;;;;;5033020;28;20176;-74
2022/07/17 06:12:44;;;;;;;0.40;0.40;;;15.60;99.90;;;;;;5032653;28;20220;-76
2022/07/17 06:15:10;;;;;;;0.30;0.30;;;15.80;1.00;;;;;;5032303;28;20181;-75
2022/07/17 06:17:35;;;;;;;0.30;0.30;;;16.20;1.00;;;;;;5032341;28;20199;-76
2022/07/17 06:20:01;;;;;;;0.40;0.40;;;16.60;1.00;;;;;;5031662;28;20548;-76
2022/07/17 06:22:26;;;;;;;0.30;0.30;;;16.70;99.90;;;;;;5033074;28;20283;-77
2022/07/17 06:24:52;;;;;;;0.30;0.30;;;16.80;99.90;;;;;;5031629;28;20172;-76
2022/07/17 06:27:17;;;;;;;0.40;0.40;;;17.00;99.90;;;;;;5031988;28;20230;-74
2022/07/17 06:29:43;;;;;;;0.20;0.20;;;17.10;99.90;;;;;;5031382;28;20200;-75
2022/07/17 06:32:09;;;;;;;0.30;0.30;;;17.40;99.90;;;;;;5031859;28;20258;-77
2022/07/17 06:34:34;;;;;;;0.37;0.37;;;17.40;66.50;;;;;;5031630;28;20172;-72
2022/07/17 06:37:00;;;;;;;0.20;0.20;;;17.40;99.90;;;;;;5031861;28;20274;-72
2022/07/17 06:39:25;;;;;;;0.30;0.30;;;17.40;58.80;;;;;;5031281;28;20186;-72
2022/07/17 06:41:51;;;;;;;0.30;0.30;;;17.40;99.90;;;;;;5031730;28;20191;-72
2022/07/17 06:44:16;;;;;;;0.40;0.40;;;17.40;93.50;;;;;;5031701;28;20606;-75
2022/07/17 06:46:42;;;;;;;0.40;0.40;;;17.40;99.90;;;;;;5033498;28;20206;-77
2022/07/17 06:49:07;;;;;;;0.40;0.40;;;17.40;99.90;;;;;;5035277;28;20740;-75
2022/07/17 06:51:33;;;;;;;0.30;0.30;;;17.50;99.90;;;;;;5037616;28;20219;-75
2022/07/17 06:53:58;;;;;;;0.37;0.37;;;17.70;99.90;;;;;;5041025;28;20195;-76
2022/07/17 06:56:24;;;;;;;0.40;0.40;;;17.80;99.90;;;;;;5050325;28;20644;-75
2022/07/17 06:58:49;;;;;;;0.40;0.40;;;18.20;99.90;;;;;;5059843;28;20171;-76
2022/07/17 07:01:15;;;;;;;0.30;0.30;;;18.40;1.00;;;;;;5055260;28;20202;-75
2022/07/17 07:03:40;;;;;;;0.37;0.37;;;18.60;1.00;;;;;;5055529;28;20198;-75
2022/07/17 07:06:06;;;;;;;0.20;0.20;;;18.80;1.00;;;;;;5055976;28;20179;-76
2022/07/17 07:08:33;;;;;;;0.30;0.30;;;19.10;1.00;;;;;;5058902;28;20201;-77
2022/07/17 07:11:00;;;;;;;0.23;0.23;;;19.30;1.00;;;;;;5059377;28;20174;-77
2022/07/17 07:13:25;;;;;;;0.30;0.30;;;19.50;1.00;;;;;;5062983;28;20210;-77
2022/07/17 07:15:51;;;;;;;0.20;0.20;;;19.70;1.00;;;;;;5056985;28;20179;-75
2022/07/17 07:18:17;;;;;;;0.40;0.40;;;20.10;1.00;;;;;;5055428;28;20175;-76
2022/07/17 07:20:42;;;;;;;0.30;0.30;;;20.30;1.00;;;;;;5055272;28;20244;-76
2022/07/17 07:23:08;;;;;;;0.30;0.30;;;20.50;1.00;;;;;;5055324;28;20247;-76
2022/07/17 07:25:34;;;;;;;0.30;0.30;;;20.60;1.00;;;;;;5055468;28;20171;-78
2022/07/17 07:27:59;;;;;;;0.30;0.30;;;20.70;1.00;;;;;;5045318;28;20231;-76
2022/07/17 07:30:25;;;;;;;0.30;0.30;;;20.70;1.00;;;;;;5046205;28;20171;-77
2022/07/17 07:32:50;;;;;;;0.30;0.30;;;20.80;1.00;;;;;;5052593;28;20273;-77
2022/07/17 07:35:16;;;;;;;0.20;0.20;;;21.00;1.00;;;;;;5051824;28;20202;-78
2022/07/17 07:37:42;;;;;;;0.40;0.40;;;21.20;1.00;;;;;;5044896;28;20599;-74
2022/07/17 07:40:08;;;;;;;0.30;0.30;;;21.40;1.00;;;;;;5034712;28;20179;-75
2022/07/17 07:42:34;;;;;;;0.20;0.20;;;21.60;1.00;;;;;;5035086;28;20571;-75
2022/07/17 07:44:59;;;;;;;0.30;0.30;;;21.70;1.00;;;;;;5035000;28;20226;-76
2022/07/17 07:47:25;;;;;;;0.30;0.30;;;21.90;1.00;;;;;;5034750;28;20184;-75
2022/07/17 07:49:51;;;;;;;0.23;0.23;;;22.10;1.00;;;;;;5034666;28;20234;-75
2022/07/17 07:52:16;;;;;;;0.23;0.23;;;22.40;1.00;;;;;;5034067;28;20215;-75
2022/07/17 07:54:43;;;;;;;0.20;0.20;;;22.60;1.00;;;;;;5034931;28;20267;-76
2022/07/17 07:57:08;;;;;;;0.30;0.30;;;22.80;1.00;;;;;;5034642;28;20641;-74
2022/07/17 07:59:34;;;;;;;0.20;0.20;;;23.40;1.00;;;;;;5033252;28;20187;-74
2022/07/17 08:02:00;;;;;;;0.33;0.33;;;24.00;1.00;;;;;;5033969;28;20724;-75
2022/07/17 08:04:26;;;;;;;0.30;0.30;;;24.80;1.00;;;;;;5034246;28;20180;-76
2022/07/17 08:06:52;;;;;;;0.30;0.30;;;25.30;1.00;;;;;;5033979;28;20258;-75
2022/07/17 08:09:17;;;;;;;0.33;0.33;;;26.00;1.00;;;;;;5033682;28;20179;-75
2022/07/17 08:11:43;;;;;;;0.40;0.40;;;26.30;1.00;;;;;;5039264;28;20207;-78
2022/07/17 08:14:08;;;;;;;0.27;0.27;;;26.40;1.00;;;;;;5056253;28;20175;-77
2022/07/17 08:16:35;;;;;;;0.33;0.33;;;26.50;1.00;;;;;;5055238;28;20171;-77
2022/07/17 08:19:00;;;;;;;0.30;0.30;;;26.70;1.00;;;;;;5055455;28;20179;-77
2022/07/17 08:21:26;;;;;;;0.40;0.40;;;26.80;1.00;;;;;;5055765;28;20253;-77
2022/07/17 08:23:52;;;;;;;0.40;0.40;;;26.90;1.00;;;;;;5056496;28;20686;-77
2022/07/17 08:26:17;;;;;;;0.43;0.43;;;27.30;1.00;;;;;;5055286;28;20695;-77
2022/07/17 08:28:42;;;;;;;0.40;0.40;;;27.60;1.00;;;;;;5054671;28;20174;-77
2022/07/17 08:31:08;;;;;;;0.40;0.40;;;27.70;1.00;;;;;;5053650;28;20194;-77
2022/07/17 08:33:34;;;;;;;0.43;0.43;;;27.90;1.00;;;;;;5055424;28;20186;-78
2022/07/17 08:35:59;;;;;;;0.40;0.40;;;28.20;1.00;;;;;;5046317;28;20168;-76
2022/07/17 08:38:25;;;;;;;0.30;0.30;;;28.40;1.00;;;;;;5033704;28;20517;-75
2022/07/17 08:40:53;;;;;;;0.40;0.40;;;28.50;1.00;;;;;;5033450;28;20611;-75
2022/07/17 08:43:19;;;;;;;0.50;0.50;;;28.30;1.00;;;;;;5033207;28;20424;-75
2022/07/17 08:45:47;;;;;;;0.60;0.60;;;28.40;1.00;;;;;;5033536;28;20176;-75
2022/07/17 08:48:14;;;;;;;0.50;0.50;;;28.70;1.00;;;;;;5033351;28;20267;-78
2022/07/17 08:50:40;;;;;;;0.40;0.40;;;29.10;1.00;;;;;;5033592;28;20669;-77
2022/07/17 08:53:05;;;;;;;0.40;0.40;;;29.20;1.00;;;;;;5034212;28;20361;-76
2022/07/17 08:55:31;;;;;;;0.40;0.40;;;29.30;1.00;;;;;;5035477;28;20164;-77
2022/07/17 08:57:57;;;;;;;0.40;0.40;;;29.30;1.00;;;;;;5035861;28;20230;-77
2022/07/17 09:00:25;;;;;;;0.40;0.40;;;29.10;1.00;;;;;;5038224;28;20241;-77
2022/07/17 09:03:04;;;;;;;0.50;0.50;;;29.30;1.00;;;;;;5040921;28;20290;-76
2022/07/17 09:05:33;;;;;;;0.40;0.40;;;29.60;1.00;;;;;;5033355;28;20179;-77
2022/07/17 09:07:59;;;;;;;0.50;0.50;;;29.80;1.00;;;;;;5046656;28;20179;-76
2022/07/17 09:10:40;;;;;;;0.60;0.60;;;29.90;1.00;;;;;;5052877;28;20236;-76
2022/07/17 09:13:22;;;;;;;0.40;0.40;;;30.10;1.00;;;;;;5052805;28;20608;-76
2022/07/17 09:15:49;;;;;;;0.53;0.53;;;30.20;1.00;;;;;;5053151;28;20175;-76
2022/07/17 09:18:15;;;;;;;0.40;0.40;;;30.30;1.00;;;;;;5053837;28;20535;-76
2022/07/17 09:20:56;;;;;;;0.53;0.53;;;30.50;1.00;;;;;;5052935;28;20254;-77
2022/07/17 09:23:24;;;;;;;0.60;0.60;;;30.50;1.00;;;;;;5052796;28;20281;-76
2022/07/17 09:25:53;;;;;;;0.40;0.40;;;30.50;1.00;;;;;;5053090;28;20529;-76
2022/07/17 09:28:20;;;;;;;0.50;0.50;;;30.50;1.00;;;;;;5053405;28;20186;-77
2022/07/17 09:30:49;;;;;;;0.50;0.50;;;30.40;1.00;;;;;;5052452;28;20171;-76
2022/07/17 09:33:26;;;;;;;0.47;0.47;;;30.50;1.00;;;;;;5052896;28;20245;-77
2022/07/17 09:36:12;;;;;;;0.53;0.53;;;30.70;1.00;;;;;;5053006;28;20182;-77
2022/07/17 09:38:40;;;;;;;0.40;0.40;;;30.50;1.00;;;;;;5052893;28;20190;-77
2022/07/17 09:41:15;;;;;;;0.30;0.30;;;30.40;1.00;;;;;;5052827;28;20190;-75
2022/07/17 09:43:57;;;;;;;0.40;0.40;;;30.40;1.00;;;;;;5053651;28;20194;-77
2022/07/17 09:46:26;;;;;;;0.30;0.30;;;30.30;1.00;;;;;;5053492;28;20244;-76
2022/07/17 09:48:54;;;;;;;0.40;0.40;;;30.30;1.00;;;;;;5053082;28;20179;-77
2022/07/17 09:51:24;;;;;;;0.50;0.50;;;30.40;1.00;;;;;;5051689;28;20649;-77
2022/07/17 09:53:53;;;;;;;0.40;0.40;;;30.40;1.00;;;;;;5052821;28;20195;-76
2022/07/17 09:56:21;;;;;;;0.50;0.50;;;30.40;1.00;;;;;;5054615;28;20179;-77
2022/07/17 09:58:52;;;;;;;0.40;0.40;;;30.10;1.00;;;;;;5052526;28;20266;-77
2022/07/17 10:01:19;;;;;;;0.50;0.50;;;29.80;1.00;;;;;;5053323;28;20213;-77
2022/07/17 10:03:45;;;;;;;0.50;0.50;;;30.00;1.00;;;;;;5052431;28;20211;-76
2022/07/17 10:06:11;;;;;;;0.30;0.30;;;30.10;1.00;;;;;;5052271;28;20171;-77
2022/07/17 10:08:38;;;;;;;0.60;0.60;;;30.40;1.00;;;;;;5052694;28;20175;-77
2022/07/17 10:11:06;;;;;;;0.40;0.40;;;30.70;1.00;;;;;;5053551;28;20175;-77
2022/07/17 10:13:32;;;;;;;0.50;0.50;;;30.40;1.00;;;;;;5053089;28;20199;-77
2022/07/17 10:15:58;;;;;;;0.50;0.50;;;29.90;1.00;;;;;;5052988;28;20174;-77
2022/07/17 10:18:44;;;;;;;0.40;0.40;;;29.30;1.00;;;;;;5053231;28;20179;-76
2022/07/17 10:21:19;;;;;;;0.40;0.40;;;29.30;1.00;;;;;;5052073;28;20202;-77
2022/07/17 10:24:07;;;;;;;0.50;0.50;;;29.20;1.00;;;;;;5052771;28;20267;-77
2022/07/17 10:26:38;;;;;;;0.40;0.40;;;29.40;1.00;;;;;;5053333;28;20663;-76
2022/07/17 10:29:27;;;;;;;0.50;0.50;;;29.70;1.00;;;;;;5052764;28;20179;-77
2022/07/17 10:31:53;;;;;;;0.40;0.40;;;29.90;1.00;;;;;;5052799;28;20326;-77
2022/07/17 10:34:21;;;;;;;0.40;0.40;;;30.00;1.00;;;;;;5052832;28;20203;-77
2022/07/17 10:36:47;;;;;;;0.40;0.40;;;29.30;1.00;;;;;;5053375;28;20205;-77
2022/07/17 10:39:18;;;;;;;0.30;0.30;;;29.50;1.00;;;;;;5051565;28;20636;-76
2022/07/17 10:41:56;;;;;;;0.40;0.40;;;29.70;1.00;;;;;;5052203;28;20536;-77
2022/07/17 10:44:26;;;;;;;0.37;0.37;;;29.80;1.00;;;;;;5052384;28;20226;-77
2022/07/17 10:46:52;;;;;;;0.50;0.50;;;30.10;1.00;;;;;;5052507;28;20648;-77
2022/07/17 10:49:18;;;;;;;0.60;0.60;;;30.50;1.00;;;;;;5052072;28;20659;-77
2022/07/17 10:51:45;;;;;;;0.50;0.50;;;31.00;1.00;;;;;;5051808;28;20202;-76
2022/07/17 10:54:11;;;;;;;0.57;0.57;;;30.90;1.00;;;;;;5052381;28;20278;-77
2022/07/17 10:56:40;;;;;;;0.40;0.40;;;30.80;1.00;;;;;;5053097;28;20668;-77
2022/07/17 10:59:06;;;;;;;0.40;0.40;;;30.90;1.00;;;;;;5052206;28;20183;-77
2022/07/17 11:01:32;;;;;;;0.40;0.40;;;31.00;1.00;;;;;;5053228;28;20683;-76
2022/07/17 11:04:00;;;;;;;0.50;0.50;;;31.00;1.00;;;;;;5053397;28;20171;-77
2022/07/17 11:06:34;;;;;;;0.40;0.40;;;30.30;1.00;;;;;;5053527;28;20179;-77
2022/07/17 11:09:03;;;;;;;0.60;0.60;;;30.10;1.00;;;;;;5053844;28;20159;-76
2022/07/17 11:11:47;;;;;;;0.33;0.33;;;30.20;1.00;;;;;;5052644;28;20211;-76
2022/07/17 11:14:22;;;;;;;0.40;0.40;;;30.30;1.00;;;;;;5052647;28;20236;-77
2022/07/17 11:16:57;;;;;;;0.37;0.37;;;29.90;1.00;;;;;;5052131;28;20199;-77
2022/07/17 11:19:30;;;;;;;0.30;0.30;;;29.40;1.00;;;;;;5052845;28;20439;-77
2022/07/17 11:21:58;;;;;;;0.40;0.40;;;29.40;1.00;;;;;;5051593;28;20203;-76
2022/07/17 11:24:26;;;;;;;0.60;0.60;;;29.80;1.00;;;;;;5051661;28;20640;-77
2022/07/17 11:26:51;;;;;;;0.50;0.50;;;30.40;1.00;;;;;;5052920;28;20179;-77
2022/07/17 11:29:18;;;;;;;0.40;0.40;;;30.70;1.00;;;;;;5051753;28;20263;-77
2022/07/17 11:31:44;;;;;;;0.40;0.40;;;30.60;1.00;;;;;;5051139;28;20207;-77
2022/07/17 11:34:11;;;;;;;0.40;0.40;;;30.70;1.00;;;;;;5054199;28;20442;-77
2022/07/17 11:36:42;;;;;;;0.50;0.50;;;30.90;1.00;;;;;;5055695;28;20248;-77
2022/07/17 11:39:11;;;;;;;0.40;0.40;;;31.40;1.00;;;;;;5055764;28;20182;-77
2022/07/17 11:41:39;;;;;;;0.40;0.40;;;31.50;1.00;;;;;;5054757;28;20194;-77
2022/07/17 11:44:08;;;;;;;0.50;0.50;;;31.70;1.00;;;;;;5055499;28;20163;-77
2022/07/17 11:46:35;;;;;;;0.60;0.60;;;32.00;1.00;;;;;;5055339;28;20177;-77
2022/07/17 11:49:01;;;;;;;0.60;0.60;;;32.30;1.00;;;;;;5055703;28;20198;-77
2022/07/17 11:51:58;;;;;;;0.60;0.60;;;32.40;1.00;;;;;;5056812;28;20290;-77
2022/07/17 11:54:23;;;;;;;0.50;0.50;;;32.60;1.00;;;;;;5040143;28;20294;-78
2022/07/17 11:56:54;;;;;;;0.50;0.50;;;32.60;1.00;;;;;;5055853;28;20640;-76
2022/07/17 11:59:26;;;;;;;0.60;0.60;;;32.50;1.00;;;;;;5055650;28;20322;-78
2022/07/17 12:01:52;;;;;;;0.40;0.40;;;32.70;1.00;;;;;;5057156;28;20219;-78
2022/07/17 12:04:17;;;;;;;0.57;0.57;;;32.60;1.00;;;;;;5055966;28;20175;-77
2022/07/17 12:06:45;;;;;;;0.40;0.40;;;32.20;1.00;;;;;;5055772;28;20178;-77
2022/07/17 12:09:11;;;;;;;0.50;0.50;;;32.10;1.00;;;;;;5057174;28;20179;-77
2022/07/17 12:11:48;;;;;;;0.50;0.50;;;32.20;1.00;;;;;;5056739;28;20221;-78
2022/07/17 12:14:13;;;;;;;0.35;0.35;;;31.70;1.00;;;;;;5054901;28;20179;-76
2022/07/17 12:16:39;;;;;;;0.60;0.60;;;31.50;1.00;;;;;;5057224;28;20535;-77
2022/07/17 12:19:14;;;;;;;0.45;0.45;;;31.30;1.00;;;;;;5054680;28;20175;-77
2022/07/17 12:22:15;;;;;;;0.40;0.40;;;31.10;1.00;;;;;;5056535;28;20179;-77
2022/07/17 12:24:43;;;;;;;0.50;0.50;;;30.80;1.00;;;;;;4973557;28;20233;-77
2022/07/17 12:27:14;;;;;;;0.40;0.40;;;30.60;1.00;;;;;;5040875;28;20203;-77
2022/07/17 12:29:44;;;;;;;0.50;0.50;;;30.60;1.00;;;;;;5055283;28;20206;-77
2022/07/17 12:32:17;;;;;;;0.40;0.40;;;30.70;1.00;;;;;;5055583;28;20296;-77
2022/07/17 12:34:47;;;;;;;0.60;0.60;;;31.00;1.00;;;;;;5057081;28;20171;-78
2022/07/17 12:37:13;;;;;;;0.60;0.60;;;30.80;1.00;;;;;;5054636;28;20171;-76
2022/07/17 12:39:39;;;;;;;0.50;0.50;;;30.60;1.00;;;;;;5054470;28;20182;-75
2022/07/17 12:42:05;;;;;;;0.50;0.50;;;30.80;1.00;;;;;;5053786;28;20191;-76
2022/07/17 12:44:31;;;;;;;0.50;0.50;;;31.00;1.00;;;;;;5053717;28;20178;-76
2022/07/17 12:46:56;;;;;;;0.43;0.43;;;31.30;1.00;;;;;;5054072;28;20209;-76
2022/07/17 12:49:23;;;;;;;0.43;0.43;;;31.40;1.00;;;;;;5053775;28;20203;-75
2022/07/17 12:51:49;;;;;;;0.40;0.40;;;31.50;1.00;;;;;;5053919;28;20207;-76
2022/07/17 12:54:15;;;;;;;0.30;0.30;;;31.40;1.00;;;;;;5053917;28;20248;-76